sensor_id;sensor_type;location;lat;lon;timestamp;P1;durP1;ratioP1;P2;durP2;ratioP2
69083;SDS011;56185;48.526;9.044;2022-12-16T00:01:03;34.95;;;18.27;;
69083;SDS011;56185;48.526;9.044;2022-12-16T00:03:30;35.33;;;17.75;;
69083;SDS011;56185;48.526;9.044;2022-12-16T00:05:55;34.63;;;18.30;;
69083;SDS011;56185;48.526;9.044;2022-12-16T00:08:20;35.03;;;18.40;;
69083;SDS011;56185;48.526;9.044;2022-12-16T00:10:45;32.60;;;18.35;;
69083;SDS011;56185;48.526;9.044;2022-12-16T00:13:10;37.97;;;19.60;;
69083;SDS011;56185;48.526;9.044;2022-12-16T00:15:36;37.33;;;18.65;;
69083;SDS011;56185;48.526;9.044;2022-12-16T00:18:01;36.13;;;19.55;;
69083;SDS011;56185;48.526;9.044;2022-12-16T00:20:26;36.03;;;18.70;;
69083;SDS011;56185;48.526;9.044;2022-12-16T00:22:52;35.78;;;18.45;;
69083;SDS011;56185;48.526;9.044;2022-12-16T00:25:18;36.42;;;19.00;;
69083;SDS011;56185;48.526;9.044;2022-12-16T00:27:43;35.35;;;18.92;;
69083;SDS011;56185;48.526;9.044;2022-12-16T00:30:09;32.28;;;18.33;;
69083;SDS011;56185;48.526;9.044;2022-12-16T00:32:34;38.28;;;20.08;;
69083;SDS011;56185;48.526;9.044;2022-12-16T00:34:59;33.97;;;18.63;;
69083;SDS011;56185;48.526;9.044;2022-12-16T00:37:25;35.53;;;18.77;;
69083;SDS011;56185;48.526;9.044;2022-12-16T00:39:50;36.28;;;19.67;;
69083;SDS011;56185;48.526;9.044;2022-12-16T00:42:15;34.47;;;18.60;;
69083;SDS011;56185;48.526;9.044;2022-12-16T00:44:40;37.17;;;18.70;;
69083;SDS011;56185;48.526;9.044;2022-12-16T00:47:06;36.67;;;19.25;;
69083;SDS011;56185;48.526;9.044;2022-12-16T00:49:31;38.97;;;19.77;;
69083;SDS011;56185;48.526;9.044;2022-12-16T00:51:56;40.97;;;19.95;;
69083;SDS011;56185;48.526;9.044;2022-12-16T00:54:21;34.47;;;18.70;;
69083;SDS011;56185;48.526;9.044;2022-12-16T00:56:46;36.85;;;20.05;;
69083;SDS011;56185;48.526;9.044;2022-12-16T00:59:12;36.72;;;18.88;;
69083;SDS011;56185;48.526;9.044;2022-12-16T01:01:37;40.53;;;21.15;;
69083;SDS011;56185;48.526;9.044;2022-12-16T01:04:02;35.85;;;19.95;;
69083;SDS011;56185;48.526;9.044;2022-12-16T01:06:28;37.05;;;18.77;;
69083;SDS011;56185;48.526;9.044;2022-12-16T01:08:53;37.10;;;19.50;;
69083;SDS011;56185;48.526;9.044;2022-12-16T01:11:18;32.55;;;18.50;;
69083;SDS011;56185;48.526;9.044;2022-12-16T01:13:45;40.30;;;20.02;;
69083;SDS011;56185;48.526;9.044;2022-12-16T01:16:10;42.17;;;20.70;;
69083;SDS011;56185;48.526;9.044;2022-12-16T01:18:36;39.10;;;21.23;;
69083;SDS011;56185;48.526;9.044;2022-12-16T01:21:05;38.20;;;20.02;;
69083;SDS011;56185;48.526;9.044;2022-12-16T01:23:32;36.30;;;19.58;;
69083;SDS011;56185;48.526;9.044;2022-12-16T01:25:58;37.92;;;19.85;;
69083;SDS011;56185;48.526;9.044;2022-12-16T01:28:24;40.13;;;20.50;;
69083;SDS011;56185;48.526;9.044;2022-12-16T01:30:54;43.17;;;20.83;;
69083;SDS011;56185;48.526;9.044;2022-12-16T01:33:22;42.15;;;19.88;;
69083;SDS011;56185;48.526;9.044;2022-12-16T01:35:48;35.75;;;19.30;;
69083;SDS011;56185;48.526;9.044;2022-12-16T01:38:13;37.70;;;19.30;;
69083;SDS011;56185;48.526;9.044;2022-12-16T01:40:38;38.70;;;20.67;;
69083;SDS011;56185;48.526;9.044;2022-12-16T01:43:10;37.15;;;20.00;;
69083;SDS011;56185;48.526;9.044;2022-12-16T01:45:37;38.95;;;20.73;;
69083;SDS011;56185;48.526;9.044;2022-12-16T01:48:09;37.67;;;19.08;;
69083;SDS011;56185;48.526;9.044;2022-12-16T01:50:44;42.45;;;20.92;;
69083;SDS011;56185;48.526;9.044;2022-12-16T01:53:10;40.55;;;20.33;;
69083;SDS011;56185;48.526;9.044;2022-12-16T01:55:42;38.70;;;20.92;;
69083;SDS011;56185;48.526;9.044;2022-12-16T01:58:17;36.65;;;19.38;;
69083;SDS011;56185;48.526;9.044;2022-12-16T02:00:46;37.55;;;19.25;;
69083;SDS011;56185;48.526;9.044;2022-12-16T02:03:11;39.92;;;19.83;;
69083;SDS011;56185;48.526;9.044;2022-12-16T02:05:40;40.13;;;20.83;;
69083;SDS011;56185;48.526;9.044;2022-12-16T02:08:16;43.70;;;20.25;;
69083;SDS011;56185;48.526;9.044;2022-12-16T02:13:25;42.10;;;20.90;;
69083;SDS011;56185;48.526;9.044;2022-12-16T02:28:00;37.97;;;19.65;;
69083;SDS011;56185;48.526;9.044;2022-12-16T02:39:42;42.80;;;18.95;;
69083;SDS011;56185;48.526;9.044;2022-12-16T02:47:41;33.30;;;18.48;;
69083;SDS011;56185;48.526;9.044;2022-12-16T02:50:41;33.20;;;17.55;;
69083;SDS011;56185;48.526;9.044;2022-12-16T02:53:03;37.83;;;18.00;;
69083;SDS011;56185;48.526;9.044;2022-12-16T02:55:36;33.38;;;18.13;;
69083;SDS011;56185;48.526;9.044;2022-12-16T03:00:46;37.25;;;19.08;;
69083;SDS011;56185;48.526;9.044;2022-12-16T03:03:23;33.60;;;17.55;;
69083;SDS011;56185;48.526;9.044;2022-12-16T03:05:54;36.55;;;19.77;;
69083;SDS011;56185;48.526;9.044;2022-12-16T03:08:29;36.63;;;19.40;;
69083;SDS011;56185;48.526;9.044;2022-12-16T03:10:58;40.58;;;19.83;;
69083;SDS011;56185;48.526;9.044;2022-12-16T03:13:26;36.15;;;18.85;;
69083;SDS011;56185;48.526;9.044;2022-12-16T03:15:55;40.25;;;20.48;;
69083;SDS011;56185;48.526;9.044;2022-12-16T03:18:22;41.10;;;20.13;;
69083;SDS011;56185;48.526;9.044;2022-12-16T03:20:53;39.45;;;19.83;;
69083;SDS011;56185;48.526;9.044;2022-12-16T03:26:12;37.72;;;20.33;;
69083;SDS011;56185;48.526;9.044;2022-12-16T03:28:57;36.78;;;19.90;;
69083;SDS011;56185;48.526;9.044;2022-12-16T03:34:21;36.65;;;20.00;;
69083;SDS011;56185;48.526;9.044;2022-12-16T03:36:58;39.60;;;21.17;;
69083;SDS011;56185;48.526;9.044;2022-12-16T03:39:32;41.60;;;21.63;;
69083;SDS011;56185;48.526;9.044;2022-12-16T03:42:01;39.47;;;20.27;;
69083;SDS011;56185;48.526;9.044;2022-12-16T03:44:27;37.63;;;19.63;;
69083;SDS011;56185;48.526;9.044;2022-12-16T03:46:53;41.10;;;20.23;;
69083;SDS011;56185;48.526;9.044;2022-12-16T03:49:18;40.90;;;20.65;;
69083;SDS011;56185;48.526;9.044;2022-12-16T03:51:44;38.38;;;20.30;;
69083;SDS011;56185;48.526;9.044;2022-12-16T03:54:10;39.13;;;21.02;;
69083;SDS011;56185;48.526;9.044;2022-12-16T03:56:35;41.47;;;22.13;;
69083;SDS011;56185;48.526;9.044;2022-12-16T03:59:00;37.38;;;20.48;;
69083;SDS011;56185;48.526;9.044;2022-12-16T04:01:25;39.30;;;19.70;;
69083;SDS011;56185;48.526;9.044;2022-12-16T04:03:51;38.40;;;20.85;;
69083;SDS011;56185;48.526;9.044;2022-12-16T04:06:16;44.38;;;20.70;;
69083;SDS011;56185;48.526;9.044;2022-12-16T04:08:41;38.55;;;19.77;;
69083;SDS011;56185;48.526;9.044;2022-12-16T04:11:06;36.97;;;19.40;;
69083;SDS011;56185;48.526;9.044;2022-12-16T04:13:32;36.00;;;19.33;;
69083;SDS011;56185;48.526;9.044;2022-12-16T04:15:57;36.85;;;20.08;;
69083;SDS011;56185;48.526;9.044;2022-12-16T04:18:22;36.13;;;19.52;;
69083;SDS011;56185;48.526;9.044;2022-12-16T04:20:48;38.42;;;20.05;;
69083;SDS011;56185;48.526;9.044;2022-12-16T04:23:18;39.40;;;19.80;;
69083;SDS011;56185;48.526;9.044;2022-12-16T04:25:44;38.53;;;20.65;;
69083;SDS011;56185;48.526;9.044;2022-12-16T04:28:09;35.03;;;19.10;;
69083;SDS011;56185;48.526;9.044;2022-12-16T04:30:35;39.22;;;20.00;;
69083;SDS011;56185;48.526;9.044;2022-12-16T04:33:04;35.90;;;19.52;;
69083;SDS011;56185;48.526;9.044;2022-12-16T04:35:37;36.50;;;19.15;;
69083;SDS011;56185;48.526;9.044;2022-12-16T04:38:02;37.05;;;18.83;;
69083;SDS011;56185;48.526;9.044;2022-12-16T04:40:28;37.75;;;19.40;;
69083;SDS011;56185;48.526;9.044;2022-12-16T04:42:53;34.53;;;17.80;;
69083;SDS011;56185;48.526;9.044;2022-12-16T04:45:18;38.50;;;20.23;;
69083;SDS011;56185;48.526;9.044;2022-12-16T04:47:43;35.58;;;19.48;;
69083;SDS011;56185;48.526;9.044;2022-12-16T04:50:09;39.05;;;20.00;;
69083;SDS011;56185;48.526;9.044;2022-12-16T04:52:34;35.78;;;19.00;;
69083;SDS011;56185;48.526;9.044;2022-12-16T04:54:59;35.80;;;19.33;;
69083;SDS011;56185;48.526;9.044;2022-12-16T04:57:25;33.63;;;17.92;;
69083;SDS011;56185;48.526;9.044;2022-12-16T04:59:50;34.67;;;18.77;;
69083;SDS011;56185;48.526;9.044;2022-12-16T05:02:15;37.22;;;17.95;;
69083;SDS011;56185;48.526;9.044;2022-12-16T05:04:40;35.88;;;18.02;;
69083;SDS011;56185;48.526;9.044;2022-12-16T05:07:05;31.75;;;18.17;;
69083;SDS011;56185;48.526;9.044;2022-12-16T05:09:31;30.92;;;17.92;;
69083;SDS011;56185;48.526;9.044;2022-12-16T05:11:56;32.83;;;18.00;;
69083;SDS011;56185;48.526;9.044;2022-12-16T05:14:21;35.58;;;18.35;;
69083;SDS011;56185;48.526;9.044;2022-12-16T05:16:47;32.22;;;17.05;;
69083;SDS011;56185;48.526;9.044;2022-12-16T05:19:12;33.08;;;17.08;;
69083;SDS011;56185;48.526;9.044;2022-12-16T05:21:37;34.60;;;18.73;;
69083;SDS011;56185;48.526;9.044;2022-12-16T05:24:02;33.47;;;18.00;;
69083;SDS011;56185;48.526;9.044;2022-12-16T05:26:28;36.10;;;19.15;;
69083;SDS011;56185;48.526;9.044;2022-12-16T05:28:53;33.22;;;18.35;;
69083;SDS011;56185;48.526;9.044;2022-12-16T05:31:19;36.75;;;18.10;;
69083;SDS011;56185;48.526;9.044;2022-12-16T05:33:44;33.53;;;18.58;;
69083;SDS011;56185;48.526;9.044;2022-12-16T05:36:09;33.75;;;18.50;;
69083;SDS011;56185;48.526;9.044;2022-12-16T05:38:35;36.97;;;18.08;;
69083;SDS011;56185;48.526;9.044;2022-12-16T05:41:00;38.90;;;19.10;;
69083;SDS011;56185;48.526;9.044;2022-12-16T05:43:25;41.95;;;21.10;;
69083;SDS011;56185;48.526;9.044;2022-12-16T05:45:50;38.88;;;18.92;;
69083;SDS011;56185;48.526;9.044;2022-12-16T05:48:16;35.58;;;19.63;;
69083;SDS011;56185;48.526;9.044;2022-12-16T05:50:41;37.35;;;19.50;;
69083;SDS011;56185;48.526;9.044;2022-12-16T05:53:06;41.90;;;21.00;;
69083;SDS011;56185;48.526;9.044;2022-12-16T05:55:31;36.03;;;19.58;;
69083;SDS011;56185;48.526;9.044;2022-12-16T05:57:56;38.08;;;19.73;;
69083;SDS011;56185;48.526;9.044;2022-12-16T06:00:22;40.97;;;20.38;;
69083;SDS011;56185;48.526;9.044;2022-12-16T06:02:48;40.55;;;21.55;;
69083;SDS011;56185;48.526;9.044;2022-12-16T06:05:13;38.05;;;20.42;;
69083;SDS011;56185;48.526;9.044;2022-12-16T06:07:38;38.45;;;20.55;;
69083;SDS011;56185;48.526;9.044;2022-12-16T06:10:04;40.67;;;21.77;;
69083;SDS011;56185;48.526;9.044;2022-12-16T06:12:29;36.97;;;20.08;;
69083;SDS011;56185;48.526;9.044;2022-12-16T06:14:55;37.63;;;19.70;;
69083;SDS011;56185;48.526;9.044;2022-12-16T06:17:21;37.95;;;19.58;;
69083;SDS011;56185;48.526;9.044;2022-12-16T06:19:46;38.65;;;20.17;;
69083;SDS011;56185;48.526;9.044;2022-12-16T06:22:11;37.08;;;18.67;;
69083;SDS011;56185;48.526;9.044;2022-12-16T06:24:36;36.33;;;20.40;;
69083;SDS011;56185;48.526;9.044;2022-12-16T06:27:04;37.67;;;20.15;;
69083;SDS011;56185;48.526;9.044;2022-12-16T06:29:30;33.17;;;18.73;;
69083;SDS011;56185;48.526;9.044;2022-12-16T06:34:22;37.15;;;19.17;;
69083;SDS011;56185;48.526;9.044;2022-12-16T06:36:48;35.22;;;18.67;;
69083;SDS011;56185;48.526;9.044;2022-12-16T06:39:13;39.80;;;19.83;;
69083;SDS011;56185;48.526;9.044;2022-12-16T06:41:38;40.22;;;19.88;;
69083;SDS011;56185;48.526;9.044;2022-12-16T06:44:03;38.38;;;20.40;;
69083;SDS011;56185;48.526;9.044;2022-12-16T06:46:29;35.30;;;19.27;;
69083;SDS011;56185;48.526;9.044;2022-12-16T06:48:54;36.38;;;19.50;;
69083;SDS011;56185;48.526;9.044;2022-12-16T06:51:19;39.30;;;20.88;;
69083;SDS011;56185;48.526;9.044;2022-12-16T06:53:44;36.95;;;19.40;;
69083;SDS011;56185;48.526;9.044;2022-12-16T06:56:09;34.65;;;19.45;;
69083;SDS011;56185;48.526;9.044;2022-12-16T06:58:35;34.88;;;19.45;;
69083;SDS011;56185;48.526;9.044;2022-12-16T07:01:00;35.50;;;18.10;;
69083;SDS011;56185;48.526;9.044;2022-12-16T07:03:25;36.20;;;19.02;;
69083;SDS011;56185;48.526;9.044;2022-12-16T07:05:54;36.45;;;19.38;;
69083;SDS011;56185;48.526;9.044;2022-12-16T07:08:19;37.33;;;19.27;;
69083;SDS011;56185;48.526;9.044;2022-12-16T07:10:44;33.28;;;18.15;;
69083;SDS011;56185;48.526;9.044;2022-12-16T07:13:10;30.98;;;16.67;;
69083;SDS011;56185;48.526;9.044;2022-12-16T07:15:35;26.52;;;14.95;;
69083;SDS011;56185;48.526;9.044;2022-12-16T07:18:00;25.52;;;13.48;;
69083;SDS011;56185;48.526;9.044;2022-12-16T07:20:25;26.40;;;13.93;;
69083;SDS011;56185;48.526;9.044;2022-12-16T07:22:51;27.80;;;14.38;;
69083;SDS011;56185;48.526;9.044;2022-12-16T07:25:16;25.13;;;13.70;;
69083;SDS011;56185;48.526;9.044;2022-12-16T07:27:44;26.75;;;13.98;;
69083;SDS011;56185;48.526;9.044;2022-12-16T07:30:10;29.30;;;15.63;;
69083;SDS011;56185;48.526;9.044;2022-12-16T07:32:36;33.63;;;17.67;;
69083;SDS011;56185;48.526;9.044;2022-12-16T07:35:01;29.42;;;15.68;;
69083;SDS011;56185;48.526;9.044;2022-12-16T07:37:26;28.55;;;16.67;;
69083;SDS011;56185;48.526;9.044;2022-12-16T07:39:52;34.15;;;16.95;;
69083;SDS011;56185;48.526;9.044;2022-12-16T07:42:17;37.22;;;18.20;;
69083;SDS011;56185;48.526;9.044;2022-12-16T07:44:42;34.28;;;17.30;;
69083;SDS011;56185;48.526;9.044;2022-12-16T07:47:07;33.72;;;17.88;;
69083;SDS011;56185;48.526;9.044;2022-12-16T07:49:33;30.02;;;16.40;;
69083;SDS011;56185;48.526;9.044;2022-12-16T07:51:58;30.73;;;17.42;;
69083;SDS011;56185;48.526;9.044;2022-12-16T07:57:16;32.90;;;16.77;;
69083;SDS011;56185;48.526;9.044;2022-12-16T07:59:41;28.02;;;16.05;;
69083;SDS011;56185;48.526;9.044;2022-12-16T08:02:08;31.80;;;16.63;;
69083;SDS011;56185;48.526;9.044;2022-12-16T08:04:34;30.23;;;16.98;;
69083;SDS011;56185;48.526;9.044;2022-12-16T08:06:59;27.85;;;16.30;;
69083;SDS011;56185;48.526;9.044;2022-12-16T08:09:24;28.40;;;15.23;;
69083;SDS011;56185;48.526;9.044;2022-12-16T08:11:49;30.15;;;16.33;;
69083;SDS011;56185;48.526;9.044;2022-12-16T08:14:15;27.85;;;15.52;;
69083;SDS011;56185;48.526;9.044;2022-12-16T08:16:40;28.80;;;14.40;;
69083;SDS011;56185;48.526;9.044;2022-12-16T08:19:05;25.83;;;13.90;;
69083;SDS011;56185;48.526;9.044;2022-12-16T08:21:30;28.02;;;15.10;;
69083;SDS011;56185;48.526;9.044;2022-12-16T08:23:56;26.40;;;14.98;;
69083;SDS011;56185;48.526;9.044;2022-12-16T08:26:21;27.60;;;15.10;;
69083;SDS011;56185;48.526;9.044;2022-12-16T08:28:47;33.25;;;14.55;;
69083;SDS011;56185;48.526;9.044;2022-12-16T08:31:12;27.83;;;15.02;;
69083;SDS011;56185;48.526;9.044;2022-12-16T08:33:38;26.65;;;14.10;;
69083;SDS011;56185;48.526;9.044;2022-12-16T08:36:03;27.35;;;14.50;;
69083;SDS011;56185;48.526;9.044;2022-12-16T08:38:28;27.58;;;14.60;;
69083;SDS011;56185;48.526;9.044;2022-12-16T08:40:54;25.63;;;14.63;;
69083;SDS011;56185;48.526;9.044;2022-12-16T08:43:19;25.30;;;14.48;;
69083;SDS011;56185;48.526;9.044;2022-12-16T08:45:44;22.40;;;12.30;;
69083;SDS011;56185;48.526;9.044;2022-12-16T08:48:10;25.77;;;13.13;;
69083;SDS011;56185;48.526;9.044;2022-12-16T08:50:35;23.67;;;12.93;;
69083;SDS011;56185;48.526;9.044;2022-12-16T08:53:00;23.83;;;13.30;;
69083;SDS011;56185;48.526;9.044;2022-12-16T08:55:26;19.55;;;11.90;;
69083;SDS011;56185;48.526;9.044;2022-12-16T08:57:52;26.40;;;12.52;;
69083;SDS011;56185;48.526;9.044;2022-12-16T09:00:18;22.08;;;12.68;;
69083;SDS011;56185;48.526;9.044;2022-12-16T09:02:43;21.23;;;11.77;;
69083;SDS011;56185;48.526;9.044;2022-12-16T09:05:09;22.08;;;12.52;;
69083;SDS011;56185;48.526;9.044;2022-12-16T09:07:35;22.85;;;13.13;;
69083;SDS011;56185;48.526;9.044;2022-12-16T09:10:00;23.38;;;12.73;;
69083;SDS011;56185;48.526;9.044;2022-12-16T09:12:25;23.98;;;12.68;;
69083;SDS011;56185;48.526;9.044;2022-12-16T09:14:51;21.77;;;11.82;;
69083;SDS011;56185;48.526;9.044;2022-12-16T09:17:16;24.90;;;13.77;;
69083;SDS011;56185;48.526;9.044;2022-12-16T09:19:41;23.40;;;13.18;;
69083;SDS011;56185;48.526;9.044;2022-12-16T09:22:07;26.52;;;14.23;;
69083;SDS011;56185;48.526;9.044;2022-12-16T09:24:32;23.42;;;12.77;;
69083;SDS011;56185;48.526;9.044;2022-12-16T09:26:57;26.10;;;14.65;;
69083;SDS011;56185;48.526;9.044;2022-12-16T09:29:23;22.88;;;13.15;;
69083;SDS011;56185;48.526;9.044;2022-12-16T09:31:48;25.38;;;13.57;;
69083;SDS011;56185;48.526;9.044;2022-12-16T09:34:14;22.83;;;12.95;;
69083;SDS011;56185;48.526;9.044;2022-12-16T09:36:39;21.70;;;12.85;;
69083;SDS011;56185;48.526;9.044;2022-12-16T09:39:04;21.58;;;12.45;;
69083;SDS011;56185;48.526;9.044;2022-12-16T09:41:34;24.00;;;12.98;;
69083;SDS011;56185;48.526;9.044;2022-12-16T09:49:51;22.10;;;11.90;;
69083;SDS011;56185;48.526;9.044;2022-12-16T09:52:17;23.45;;;12.93;;
69083;SDS011;56185;48.526;9.044;2022-12-16T09:54:44;20.80;;;12.60;;
69083;SDS011;56185;48.526;9.044;2022-12-16T09:57:10;21.52;;;12.07;;
69083;SDS011;56185;48.526;9.044;2022-12-16T09:59:37;22.23;;;11.93;;
69083;SDS011;56185;48.526;9.044;2022-12-16T10:02:12;20.50;;;11.82;;
69083;SDS011;56185;48.526;9.044;2022-12-16T10:07:07;21.25;;;11.45;;
69083;SDS011;56185;48.526;9.044;2022-12-16T10:12:42;21.23;;;11.77;;
69083;SDS011;56185;48.526;9.044;2022-12-16T10:15:30;22.23;;;11.55;;
69083;SDS011;56185;48.526;9.044;2022-12-16T10:18:03;24.67;;;12.25;;
69083;SDS011;56185;48.526;9.044;2022-12-16T10:23:15;22.77;;;12.05;;
69083;SDS011;56185;48.526;9.044;2022-12-16T10:25:59;21.75;;;12.20;;
69083;SDS011;56185;48.526;9.044;2022-12-16T10:28:42;21.77;;;11.27;;
69083;SDS011;56185;48.526;9.044;2022-12-16T10:31:11;24.35;;;11.68;;
69083;SDS011;56185;48.526;9.044;2022-12-16T10:33:39;22.77;;;12.23;;
69083;SDS011;56185;48.526;9.044;2022-12-16T10:36:06;24.05;;;12.27;;
69083;SDS011;56185;48.526;9.044;2022-12-16T10:38:39;21.63;;;11.63;;
69083;SDS011;56185;48.526;9.044;2022-12-16T10:41:08;23.13;;;12.02;;
69083;SDS011;56185;48.526;9.044;2022-12-16T10:43:41;20.92;;;11.52;;
69083;SDS011;56185;48.526;9.044;2022-12-16T10:46:11;23.02;;;12.05;;
69083;SDS011;56185;48.526;9.044;2022-12-16T10:48:42;21.70;;;11.43;;
69083;SDS011;56185;48.526;9.044;2022-12-16T10:51:12;21.98;;;11.70;;
69083;SDS011;56185;48.526;9.044;2022-12-16T10:53:39;19.08;;;11.20;;
69083;SDS011;56185;48.526;9.044;2022-12-16T10:59:04;21.17;;;10.63;;
69083;SDS011;56185;48.526;9.044;2022-12-16T11:01:30;17.58;;;10.35;;
69083;SDS011;56185;48.526;9.044;2022-12-16T11:03:56;19.83;;;10.63;;
69083;SDS011;56185;48.526;9.044;2022-12-16T11:06:24;22.95;;;11.38;;
69083;SDS011;56185;48.526;9.044;2022-12-16T11:08:52;18.08;;;10.73;;
69083;SDS011;56185;48.526;9.044;2022-12-16T11:13:47;21.65;;;11.88;;
69083;SDS011;56185;48.526;9.044;2022-12-16T11:16:14;18.05;;;10.95;;
69083;SDS011;56185;48.526;9.044;2022-12-16T11:18:48;28.63;;;13.52;;
69083;SDS011;56185;48.526;9.044;2022-12-16T11:21:18;19.90;;;11.57;;
69083;SDS011;56185;48.526;9.044;2022-12-16T11:23:45;23.45;;;12.30;;
69083;SDS011;56185;48.526;9.044;2022-12-16T11:26:19;24.48;;;11.80;;
69083;SDS011;56185;48.526;9.044;2022-12-16T11:28:44;25.23;;;13.23;;
69083;SDS011;56185;48.526;9.044;2022-12-16T11:31:11;19.58;;;10.88;;
69083;SDS011;56185;48.526;9.044;2022-12-16T11:33:38;17.90;;;11.23;;
69083;SDS011;56185;48.526;9.044;2022-12-16T11:36:15;21.42;;;12.00;;
69083;SDS011;56185;48.526;9.044;2022-12-16T11:38:45;20.23;;;11.80;;
69083;SDS011;56185;48.526;9.044;2022-12-16T11:41:17;20.05;;;11.40;;
69083;SDS011;56185;48.526;9.044;2022-12-16T11:46:19;18.83;;;10.38;;
69083;SDS011;56185;48.526;9.044;2022-12-16T11:48:50;20.50;;;11.02;;
69083;SDS011;56185;48.526;9.044;2022-12-16T11:51:21;20.85;;;11.35;;
69083;SDS011;56185;48.526;9.044;2022-12-16T11:53:48;18.20;;;9.70;;
69083;SDS011;56185;48.526;9.044;2022-12-16T11:56:19;16.85;;;9.60;;
69083;SDS011;56185;48.526;9.044;2022-12-16T11:58:49;17.13;;;8.75;;
69083;SDS011;56185;48.526;9.044;2022-12-16T12:01:23;17.13;;;9.27;;
69083;SDS011;56185;48.526;9.044;2022-12-16T12:03:52;17.00;;;9.73;;
69083;SDS011;56185;48.526;9.044;2022-12-16T12:06:27;20.92;;;10.85;;
69083;SDS011;56185;48.526;9.044;2022-12-16T12:11:48;18.52;;;10.20;;
69083;SDS011;56185;48.526;9.044;2022-12-16T12:19:50;19.70;;;9.77;;
69083;SDS011;56185;48.526;9.044;2022-12-16T12:22:38;17.38;;;9.95;;
69083;SDS011;56185;48.526;9.044;2022-12-16T12:25:07;18.40;;;11.02;;
69083;SDS011;56185;48.526;9.044;2022-12-16T12:30:27;18.05;;;9.57;;
69083;SDS011;56185;48.526;9.044;2022-12-16T12:38:15;18.73;;;9.97;;
69083;SDS011;56185;48.526;9.044;2022-12-16T12:40:54;16.00;;;9.48;;
69083;SDS011;56185;48.526;9.044;2022-12-16T12:43:32;17.55;;;10.00;;
69083;SDS011;56185;48.526;9.044;2022-12-16T12:46:06;16.55;;;9.18;;
69083;SDS011;56185;48.526;9.044;2022-12-16T12:51:43;15.13;;;8.27;;
69083;SDS011;56185;48.526;9.044;2022-12-16T12:56:48;14.07;;;8.40;;
69083;SDS011;56185;48.526;9.044;2022-12-16T12:59:16;14.77;;;7.95;;
69083;SDS011;56185;48.526;9.044;2022-12-16T13:01:48;14.40;;;8.35;;
69083;SDS011;56185;48.526;9.044;2022-12-16T13:04:18;14.20;;;8.10;;
69083;SDS011;56185;48.526;9.044;2022-12-16T13:06:44;14.30;;;8.07;;
69083;SDS011;56185;48.526;9.044;2022-12-16T13:12:18;14.70;;;7.97;;
69083;SDS011;56185;48.526;9.044;2022-12-16T13:17:11;14.40;;;7.40;;
69083;SDS011;56185;48.526;9.044;2022-12-16T13:19:39;12.57;;;7.30;;
69083;SDS011;56185;48.526;9.044;2022-12-16T13:22:18;15.15;;;8.07;;
69083;SDS011;56185;48.526;9.044;2022-12-16T13:24:52;11.60;;;7.20;;
69083;SDS011;56185;48.526;9.044;2022-12-16T13:27:18;14.60;;;8.15;;
69083;SDS011;56185;48.526;9.044;2022-12-16T13:29:50;13.45;;;7.90;;
69083;SDS011;56185;48.526;9.044;2022-12-16T13:32:25;12.88;;;7.35;;
69083;SDS011;56185;48.526;9.044;2022-12-16T13:35:01;16.65;;;8.10;;
69083;SDS011;56185;48.526;9.044;2022-12-16T13:37:38;12.02;;;7.10;;
69083;SDS011;56185;48.526;9.044;2022-12-16T13:40:05;12.63;;;7.28;;
69083;SDS011;56185;48.526;9.044;2022-12-16T13:45:14;12.40;;;7.57;;
69083;SDS011;56185;48.526;9.044;2022-12-16T13:50:59;17.07;;;9.13;;
69083;SDS011;56185;48.526;9.044;2022-12-16T13:53:04;15.75;;;7.80;;
69083;SDS011;56185;48.526;9.044;2022-12-16T13:55:41;14.85;;;8.02;;
69083;SDS011;56185;48.526;9.044;2022-12-16T13:58:22;13.23;;;7.18;;
69083;SDS011;56185;48.526;9.044;2022-12-16T14:01:17;11.88;;;6.47;;
69083;SDS011;56185;48.526;9.044;2022-12-16T14:03:48;14.02;;;7.45;;
69083;SDS011;56185;48.526;9.044;2022-12-16T14:06:18;12.15;;;7.18;;
69083;SDS011;56185;48.526;9.044;2022-12-16T14:08:46;13.82;;;7.72;;
69083;SDS011;56185;48.526;9.044;2022-12-16T14:11:15;13.75;;;7.35;;
69083;SDS011;56185;48.526;9.044;2022-12-16T14:13:56;14.07;;;7.30;;
69083;SDS011;56185;48.526;9.044;2022-12-16T14:21:44;15.02;;;8.38;;
69083;SDS011;56185;48.526;9.044;2022-12-16T14:24:18;20.50;;;10.20;;
69083;SDS011;56185;48.526;9.044;2022-12-16T14:26:48;15.05;;;9.07;;
69083;SDS011;56185;48.526;9.044;2022-12-16T14:29:21;13.45;;;8.35;;
69083;SDS011;56185;48.526;9.044;2022-12-16T14:31:47;13.90;;;7.72;;
69083;SDS011;56185;48.526;9.044;2022-12-16T14:36:51;12.10;;;7.10;;
69083;SDS011;56185;48.526;9.044;2022-12-16T14:39:20;11.35;;;6.75;;
69083;SDS011;56185;48.526;9.044;2022-12-16T14:41:49;14.05;;;7.70;;
69083;SDS011;56185;48.526;9.044;2022-12-16T14:44:24;13.77;;;7.43;;
69083;SDS011;56185;48.526;9.044;2022-12-16T14:46:49;14.00;;;7.27;;
69083;SDS011;56185;48.526;9.044;2022-12-16T14:49:25;12.75;;;7.80;;
69083;SDS011;56185;48.526;9.044;2022-12-16T14:51:52;13.07;;;7.90;;
69083;SDS011;56185;48.526;9.044;2022-12-16T14:54:37;14.90;;;8.10;;
69083;SDS011;56185;48.526;9.044;2022-12-16T14:57:23;13.48;;;7.72;;
69083;SDS011;56185;48.526;9.044;2022-12-16T14:59:59;14.50;;;7.57;;
69083;SDS011;56185;48.526;9.044;2022-12-16T15:02:37;15.52;;;7.07;;
69083;SDS011;56185;48.526;9.044;2022-12-16T15:05:07;13.60;;;7.80;;
69083;SDS011;56185;48.526;9.044;2022-12-16T15:07:34;12.70;;;7.75;;
69083;SDS011;56185;48.526;9.044;2022-12-16T15:10:01;13.85;;;7.93;;
69083;SDS011;56185;48.526;9.044;2022-12-16T15:12:28;16.35;;;7.75;;
69083;SDS011;56185;48.526;9.044;2022-12-16T15:14:56;14.23;;;7.45;;
69083;SDS011;56185;48.526;9.044;2022-12-16T15:17:24;15.80;;;8.10;;
69083;SDS011;56185;48.526;9.044;2022-12-16T15:19:53;15.75;;;9.10;;
69083;SDS011;56185;48.526;9.044;2022-12-16T15:22:18;21.58;;;10.93;;
69083;SDS011;56185;48.526;9.044;2022-12-16T15:24:43;13.63;;;7.55;;
69083;SDS011;56185;48.526;9.044;2022-12-16T15:29:43;12.23;;;7.13;;
69083;SDS011;56185;48.526;9.044;2022-12-16T15:34:48;18.00;;;7.57;;
69083;SDS011;56185;48.526;9.044;2022-12-16T15:37:15;12.50;;;7.22;;
69083;SDS011;56185;48.526;9.044;2022-12-16T15:39:41;12.93;;;7.15;;
69083;SDS011;56185;48.526;9.044;2022-12-16T15:42:17;14.13;;;7.53;;
69083;SDS011;56185;48.526;9.044;2022-12-16T15:44:53;13.63;;;7.55;;
69083;SDS011;56185;48.526;9.044;2022-12-16T15:47:20;14.77;;;7.85;;
69083;SDS011;56185;48.526;9.044;2022-12-16T15:49:50;17.60;;;7.28;;
69083;SDS011;56185;48.526;9.044;2022-12-16T15:55:27;14.63;;;7.40;;
69083;SDS011;56185;48.526;9.044;2022-12-16T15:58:08;15.68;;;7.60;;
69083;SDS011;56185;48.526;9.044;2022-12-16T16:00:40;13.57;;;7.70;;
69083;SDS011;56185;48.526;9.044;2022-12-16T16:03:24;12.88;;;7.32;;
69083;SDS011;56185;48.526;9.044;2022-12-16T16:05:51;12.90;;;7.28;;
69083;SDS011;56185;48.526;9.044;2022-12-16T16:08:17;13.95;;;7.15;;
69083;SDS011;56185;48.526;9.044;2022-12-16T16:10:43;14.68;;;7.95;;
69083;SDS011;56185;48.526;9.044;2022-12-16T16:13:09;13.82;;;8.02;;
69083;SDS011;56185;48.526;9.044;2022-12-16T16:15:35;18.73;;;8.85;;
69083;SDS011;56185;48.526;9.044;2022-12-16T16:18:01;14.50;;;7.90;;
69083;SDS011;56185;48.526;9.044;2022-12-16T16:20:29;14.10;;;8.13;;
69083;SDS011;56185;48.526;9.044;2022-12-16T16:22:54;14.65;;;8.80;;